OOCL Nagoya — VRFX8 — position and weather

sailwx.info

Track history (hours):
 
Tides and Currents Weather Stations Pressure Air Temp Water Temp Dewpoint Dewpoint Depression Visibility Wind Speed Wind Dir Waves Ship Positions

OOCL Nagoya

Last reported at 2016-May-26 09:28 UTC. Time now 2016-May-29 03:57 UTC.
Position N 34°00' E 134°55'.

Length 261 m; draft 11.5 m.

Type: Cargo ship. MMSI: 477627900.

Date/timePositionNaut miles runAvg speedWind from/ knotsBaromVisibWave heightAir tempDewpointWater temp
2016-May-26 09:28N 34°00' E 134°55'1415.5
2016-May-26 08:33N 34°14' E 134°57'1716.6
2016-May-26 07:33N 34°29' E 135°07'1212.5
2016-May-26 06:33N 34°40' E 135°14'0 0.1
2016-May-26 05:29N 34°39' E 135°14'0 0.0
2016-May-26 04:29N 34°39' E 135°14'0 0.0
2016-May-26 03:23N 34°39' E 135°14'0 0.0
2016-May-26 02:29N 34°39' E 135°14'0 0.0
2016-May-26 01:23N 34°39' E 135°14'0 0.0
2016-May-26 00:29N 34°39' E 135°14'0 0.0
2016-May-25 23:29N 34°39' E 135°14'1 0.7
2016-May-25 22:33N 34°39' E 135°15'1313.0
2016-May-25 21:33N 34°27' E 135°09'1616.4
2016-May-25 20:33N 34°13' E 134°59'1111.3
2016-May-25 19:34N 34°02' E 134°58'201 4.5
2016-May-23 22:25N 34°32' E 138°59'1618.8
2016-May-23 21:33N 34°45' E 139°12'1818.4
2016-May-23 20:33N 34°58' E 139°27'1918.7
2016-May-23 19:34N 35°10' E 139°45'1212.2
2016-May-23 18:33N 35°22' E 139°42'1313.2
2016-May-23 17:33N 35°33' E 139°50'4 3.8
2016-May-23 16:31N 35°36' E 139°47'0 0.0
2016-May-23 15:31N 35°36' E 139°47'0 0.0
2016-May-23 14:31N 35°36' E 139°47'0 0.0
2016-May-23 13:31N 35°36' E 139°47'0 0.0
2016-May-23 12:31N 35°36' E 139°47'0 0.0
2016-May-23 11:31N 35°36' E 139°47'0 0.0
2016-May-23 10:28N 35°36' E 139°47'0 0.0
2016-May-23 09:31N 35°36' E 139°47'0 0.0
2016-May-23 08:31N 35°36' E 139°47'0 0.0
2016-May-23 07:31N 35°36' E 139°47'0 0.0
2016-May-23 06:31N 35°36' E 139°47'0 0.0
2016-May-23 05:31N 35°36' E 139°47'0 0.0
2016-May-23 04:31N 35°36' E 139°47'1 0.9
2016-May-23 03:34N 35°35' E 139°47'8 8.3
2016-May-23 02:34N 35°27' E 139°49'1212.1
2016-May-23 01:33N 35°15' E 139°47'1010.2
2016-May-23 00:33N 35°05' E 139°45'1312.9
2016-May-22 23:34N 34°58' E 139°32'1514.9
2016-May-22 22:34N 34°48' E 139°18'1515.1
2016-May-22 21:34N 34°36' E 139°07'1514.9
2016-May-22 20:33N 34°25' E 138°56'  
2016-May-19 17:04N 24°21' E 119°14'714.1
2016-May-19 16:33N 24°17' E 119°07'5814.4
2016-May-19 12:32N 23°47' E 118°12'22514.9
2016-May-18 21:25N 22°07' E 114°34'1214.4
2016-May-18 20:33N 22°06' E 114°20'1111.1
2016-May-18 19:33N 22°12' E 114°10'8 7.9
2016-May-18 18:33N 22°20' E 114°07'1 0.9
2016-May-18 17:14N 22°21' E 114°07'0 0.0
2016-May-18 10:29N 22°21' E 114°07'0 0.0
2016-May-18 04:33N 22°21' E 114°07'11 8.4
2016-May-18 03:13N 22°21' E 113°55'5 8.1
2016-May-18 02:33N 22°26' E 113°53'1 1.3
2016-May-18 01:32N 22°28' E 113°54'0 0.0
2016-May-17 23:20N 22°28' E 113°54'0 0.0
2016-May-17 16:32N 22°28' E 113°54'0 0.0
2016-May-17 15:32N 22°28' E 113°54'3 3.4
2016-May-17 14:33N 22°24' E 113°54'10 9.4
2016-May-17 13:29N 22°22' E 114°04'19 9.4
2016-May-17 11:30N 22°08' E 114°18'  
Track history (hours):
 
Tides and Currents Weather Stations Pressure Air Temp Water Temp Dewpoint Dewpoint Depression Visibility Wind Speed Wind Dir Waves Ship Positions

OOCL Nagoya

Last reported at 2016-May-26 09:28 UTC. Time now 2016-May-29 03:57 UTC.
Position N 34°00' E 134°55'.

Length 261 m; draft 11.5 m.

Type: Cargo ship. MMSI: 477627900.

Date/timePositionNaut miles runAvg speedWind from/ knotsBaromVisibWave heightAir tempDewpointWater temp
2016-May-26 09:28N 34°00' E 134°55'1415.5
2016-May-26 08:33N 34°14' E 134°57'1716.6
2016-May-26 07:33N 34°29' E 135°07'1212.5
2016-May-26 06:33N 34°40' E 135°14'0 0.1
2016-May-26 05:29N 34°39' E 135°14'0 0.0
2016-May-26 04:29N 34°39' E 135°14'0 0.0
2016-May-26 03:23N 34°39' E 135°14'0 0.0
2016-May-26 02:29N 34°39' E 135°14'0 0.0
2016-May-26 01:23N 34°39' E 135°14'0 0.0
2016-May-26 00:29N 34°39' E 135°14'0 0.0
2016-May-25 23:29N 34°39' E 135°14'1 0.7
2016-May-25 22:33N 34°39' E 135°15'1313.0
2016-May-25 21:33N 34°27' E 135°09'1616.4
2016-May-25 20:33N 34°13' E 134°59'1111.3
2016-May-25 19:34N 34°02' E 134°58'201 4.5
2016-May-23 22:25N 34°32' E 138°59'1618.8
2016-May-23 21:33N 34°45' E 139°12'1818.4
2016-May-23 20:33N 34°58' E 139°27'1918.7
2016-May-23 19:34N 35°10' E 139°45'1212.2
2016-May-23 18:33N 35°22' E 139°42'1313.2
2016-May-23 17:33N 35°33' E 139°50'4 3.8
2016-May-23 16:31N 35°36' E 139°47'0 0.0
2016-May-23 15:31N 35°36' E 139°47'0 0.0
2016-May-23 14:31N 35°36' E 139°47'0 0.0
2016-May-23 13:31N 35°36' E 139°47'0 0.0
2016-May-23 12:31N 35°36' E 139°47'0 0.0
2016-May-23 11:31N 35°36' E 139°47'0 0.0
2016-May-23 10:28N 35°36' E 139°47'0 0.0
2016-May-23 09:31N 35°36' E 139°47'0 0.0
2016-May-23 08:31N 35°36' E 139°47'0 0.0
2016-May-23 07:31N 35°36' E 139°47'0 0.0
2016-May-23 06:31N 35°36' E 139°47'0 0.0
2016-May-23 05:31N 35°36' E 139°47'0 0.0
2016-May-23 04:31N 35°36' E 139°47'1 0.9
2016-May-23 03:34N 35°35' E 139°47'8 8.3
2016-May-23 02:34N 35°27' E 139°49'1212.1
2016-May-23 01:33N 35°15' E 139°47'1010.2
2016-May-23 00:33N 35°05' E 139°45'1312.9
2016-May-22 23:34N 34°58' E 139°32'1514.9
2016-May-22 22:34N 34°48' E 139°18'1515.1
2016-May-22 21:34N 34°36' E 139°07'1514.9
2016-May-22 20:33N 34°25' E 138°56'  
2016-May-19 17:04N 24°21' E 119°14'714.1
2016-May-19 16:33N 24°17' E 119°07'5814.4
2016-May-19 12:32N 23°47' E 118°12'22514.9
2016-May-18 21:25N 22°07' E 114°34'1214.4
2016-May-18 20:33N 22°06' E 114°20'1111.1
2016-May-18 19:33N 22°12' E 114°10'8 7.9
2016-May-18 18:33N 22°20' E 114°07'1 0.9
2016-May-18 17:14N 22°21' E 114°07'0 0.0
2016-May-18 10:29N 22°21' E 114°07'0 0.0
2016-May-18 04:33N 22°21' E 114°07'11 8.4
2016-May-18 03:13N 22°21' E 113°55'5 8.1
2016-May-18 02:33N 22°26' E 113°53'1 1.3
2016-May-18 01:32N 22°28' E 113°54'0 0.0
2016-May-17 23:20N 22°28' E 113°54'0 0.0
2016-May-17 16:32N 22°28' E 113°54'0 0.0
2016-May-17 15:32N 22°28' E 113°54'3 3.4
2016-May-17 14:33N 22°24' E 113°54'10 9.4
2016-May-17 13:29N 22°22' E 114°04'19 9.4
2016-May-17 11:30N 22°08' E 114°18'  

Dump ship's entire track history